Weather at Gillespie Field

Public forecast

Using degrees Fahrenheit for public forecast. Weather courtesy of forecast.io.

Current aviation weather report (METAR) for Gillespie Field

Retrieved 2021/10/20 20:47 UTC (2 hours ago):

KSEE 202047Z 27007KT 10SM SKC 23/08 A3006

Closest aviation forecast (TAF) to Gillespie Field

Forecast is more than 12 hours old.

Closest forecast is Miramar Marine Corps Air Station - Mitscher Field, 9.0 nm (16.6 km) WNW. Retrieved 2020/04/17 09:18 UTC (2 years ago):

TAF KNKX 171200Z 1709/1809 VRB05KT 9999 SCT030 QNH2992INS TEMPO 1709/1715 BKN010 TEMPO 1719/1801 24010G15KT T12/1710Z T22/1721Z